Pagrindinis puslapis
METAR-TAF:

METAR-TAF

Oro uostai :

Merzifon, Turkija

platuma: 40-51N, ilguma: 035-35E, Aukštis: 545 m

Dabartinis oras

Ataskaita buvo paskelbta 31 minutes, ne 02:20 UTC
Vėjas 5 kt iš Pietų
Temperatūra 6°C
Drėgmė 75%
Slėgis 1007 hPa
Matomumas 10 km arba daugiau
Išsisklaidę debesys ne aukštis 4000 ft
Su prošvaistėmis ne aukštis 10000 ft

METAR: LTAP 010220Z 18005KT 9999 SCT040 BKN100 06/02 Q1007 NOSIG RMK RWY23 20007KT

Laikas: 05:51 (02:51 UTC)

Prognozė

Ataskaita buvo paskelbta 4 valandos ir 11 minutes, ne 22:40 UTC
Prognozė galioja nuo 01 metu 00 UTC su 01 metu 24 UTC
Vėjas 8 kt iš Pietų/Pietvakarių
Matomumas 10 km arba daugiau
Išsisklaidę debesys ne aukštis 4000 ft
Su prošvaistėmis ne aukštis 9000 ft
Tikimybė 30% :
Laikinai
nuo 01 metu 10 UTC su 01 metu 14 UTC
Su prošvaistėmis ne aukštis 3300 ft
lietus

TAF: LTAP 302240Z 0100/0124 21008KT 9999 SCT040 BKN090 PROB30 TEMPO 0110/0114 -SHRA BKN033

Orai ataskaitas ir orų prognozės (METAR, TAF).

turimą stotys yra geltonos ir raudonos taškus žemėlapyje.

Perkelti pele per norėdami pamatyti stoties vardą.

Tada spustelėkite, norėdami matyti oro stebėjimo ir prognozės.

Norėdami pakeisti žemėlapį: spustelėkite ant žalios mygtukų su juodo kryžiaus žemyn,; žalią mygtuką su brūkšneliu, jei norite nutolinti; arba žalių rodyklių gretimoms žemėlapius.


METAR-TAF: